createdAt,value
2023-05-21T00:00:33.415Z,79.60362832266753
2023-05-21T00:03:32.116Z,78.90765751775588
2023-05-21T00:06:27.693Z,78.73069129611439
2023-05-21T00:09:23.040Z,78.33101170383992
2023-05-21T00:12:18.669Z,78.45543907971661
2023-05-21T00:15:14.201Z,78.50688390464163
2023-05-21T00:18:09.861Z,78.26087587377536
2023-05-21T00:21:05.351Z,78.02870464865555
2023-05-21T00:24:03.892Z,77.97953348822382
2023-05-21T00:26:59.422Z,77.64920873295708
2023-05-21T00:29:54.992Z,77.93995892123952
2023-05-21T00:32:50.611Z,78.38284135731087
2023-05-21T00:35:46.179Z,78.13234616872023
2023-05-21T00:38:43.721Z,78.30350671773053
2023-05-21T00:41:40.259Z,78.96735785762175
2023-05-21T00:44:36.800Z,79.20388795465104
2023-05-21T00:47:34.399Z,78.65454553028803
2023-05-21T00:50:30.934Z,78.70687950796538
2023-05-21T00:53:27.514Z,78.54018398416258
2023-05-21T00:56:24.037Z,77.9206051799902
2023-05-21T00:59:19.757Z,78.28045633672077
2023-05-21T01:02:18.289Z,78.87432698964113
2023-05-21T01:05:14.720Z,77.86781049010379
2023-05-21T01:08:14.301Z,77.40185832459542
2023-05-21T01:11:10.827Z,76.71229918434992
2023-05-21T01:14:10.398Z,76.18153997017313
2023-05-21T01:17:10.018Z,75.30694196577652
2023-05-21T01:20:10.521Z,75.7094622798629
2023-05-21T01:23:07.049Z,75.88158011598942
2023-05-21T01:26:02.638Z,75.51437799691301
2023-05-21T01:28:58.143Z,76.02649317579802
2023-05-21T01:32:02.720Z,75.6347058327285
2023-05-21T01:35:05.250Z,76.13281065200383
2023-05-21T01:38:06.764Z,76.52931512503496
2023-05-21T01:41:08.382Z,77.29648420957791
2023-05-21T01:44:06.865Z,77.7333257968123
2023-05-21T01:47:06.466Z,77.90755644853994
2023-05-21T01:50:03.997Z,78.60773693974073
2023-05-21T01:53:00.576Z,77.7427418582206
2023-05-21T01:55:57.149Z,77.20746912755628
2023-05-21T01:58:56.673Z,76.7047181602408
2023-05-21T02:01:52.332Z,76.49999213823185
2023-05-21T02:04:49.801Z,76.54245374749394
2023-05-21T02:07:47.405Z,76.72949402857837
2023-05-21T02:10:44.103Z,77.01902527573047
2023-05-21T02:13:42.486Z,76.88178036720959
2023-05-21T02:16:42.034Z,77.44320173652254
2023-05-21T02:19:38.587Z,77.00284831521903
2023-05-21T02:22:34.144Z,77.29194651596912
2023-05-21T02:25:30.715Z,77.15521933085527
2023-05-21T02:28:29.293Z,77.11208248093739
2023-05-21T02:31:24.814Z,77.00079096278795
2023-05-21T02:34:21.540Z,76.9389192600394
2023-05-21T02:37:20.955Z,76.53524843177622
2023-05-21T02:40:16.516Z,76.48180826961115
2023-05-21T02:43:15.945Z,76.48599250113666
2023-05-21T02:46:11.639Z,76.62848581744318
2023-05-21T02:49:07.155Z,77.15668776063919
2023-05-21T02:52:04.713Z,77.02770896488212
2023-05-21T02:55:00.312Z,76.52953424850857
2023-05-21T02:57:55.840Z,77.03032182239933
2023-05-21T03:00:52.513Z,76.62449553781542
2023-05-21T03:03:48.042Z,75.91193290732691
2023-05-21T03:06:44.540Z,76.29122241804002
2023-05-21T03:09:42.160Z,76.42526108945705
2023-05-21T03:12:37.631Z,77.11908394674177
2023-05-21T03:15:33.191Z,76.76073461648383
2023-05-21T03:18:28.764Z,76.79081361541483
2023-05-21T03:21:24.305Z,76.27614727151422
2023-05-21T03:24:20.905Z,76.35638500474282
2023-05-21T03:27:16.412Z,76.62162950759057
2023-05-21T03:30:12.999Z,77.03554373869018
2023-05-21T03:33:10.595Z,77.6672505484104
2023-05-21T03:36:07.146Z,77.53945871390458
2023-05-21T03:39:03.697Z,77.33004331037107
2023-05-21T03:41:59.232Z,78.09220771711647
2023-05-21T03:44:55.821Z,78.10003542966895
2023-05-21T03:47:51.403Z,78.33665205840461
2023-05-21T03:50:46.885Z,78.58420134435542
2023-05-21T03:53:42.470Z,78.12392307976052
2023-05-21T03:56:38.059Z,78.31992225731622
2023-05-21T03:59:33.586Z,77.58027608172951
2023-05-21T04:02:29.260Z,76.96102060112523
2023-05-21T04:05:24.757Z,76.08887237897828
2023-05-21T04:08:21.279Z,76.33407921657125
2023-05-21T04:11:16.881Z,76.43740630398278
2023-05-21T04:14:12.405Z,76.07163826950097
2023-05-21T04:17:11.990Z,75.98941698107232
2023-05-21T04:20:08.500Z,75.55452049897384
2023-05-21T04:23:05.054Z,75.92799555662234
2023-05-21T04:26:01.673Z,76.11393701989364
2023-05-21T04:29:03.182Z,76.50674751307528
2023-05-21T04:31:59.803Z,76.29076681466893
2023-05-21T04:34:55.353Z,76.08839537757345
2023-05-21T04:37:51.885Z,75.89318192606589
2023-05-21T04:40:50.426Z,75.15471882563627
2023-05-21T04:43:45.971Z,75.13823147693675
2023-05-21T04:46:42.593Z,74.16217360925188
2023-05-21T04:49:38.095Z,73.20328078086362
2023-05-21T04:52:34.651Z,72.95336648600902
2023-05-21T04:55:30.200Z,72.97810562873943
2023-05-21T04:58:27.801Z,71.898761758121
2023-05-21T05:01:26.406Z,71.73235426798952
2023-05-21T05:04:21.881Z,71.95850700462162
2023-05-21T05:07:17.415Z,71.1074563644292
2023-05-21T05:10:13.039Z,71.75997381803491
2023-05-21T05:13:08.595Z,71.07718355910674
2023-05-21T05:16:06.188Z,70.67939193185998
2023-05-21T05:19:02.761Z,70.71870906694305
2023-05-21T05:21:59.255Z,70.45433951261744
2023-05-21T05:24:54.805Z,68.78767569461223
2023-05-21T05:27:50.403Z,69.07281282540896
2023-05-21T05:30:47.033Z,69.41552703615064
2023-05-21T05:33:43.513Z,69.4536918440478
2023-05-21T05:36:40.056Z,68.54003858026323
2023-05-21T05:39:35.622Z,67.70606730521789
2023-05-21T05:42:31.199Z,67.73139930230789
2023-05-21T05:45:27.797Z,67.07061170515024
2023-05-21T05:48:23.317Z,67.31890604512245
2023-05-21T05:51:19.873Z,67.28076442587559
2023-05-21T05:54:15.408Z,66.94720704797506
2023-05-21T05:57:10.967Z,67.63888252667739
2023-05-21T06:00:08.582Z,67.26300626313592
2023-05-21T06:03:05.308Z,66.17350777851844
2023-05-21T06:06:00.660Z,66.7193253510654
2023-05-21T06:08:56.225Z,66.33739737274195
2023-05-21T06:11:52.811Z,66.25413470366013
2023-05-21T06:14:48.330Z,66.03563283231188
2023-05-21T06:17:44.004Z,66.0201950340744
2023-05-21T06:20:41.447Z,64.56497381577756
2023-05-21T06:23:39.024Z,65.2678642095168
2023-05-21T06:26:34.568Z,64.14668998423005
2023-05-21T06:29:30.156Z,63.87960347775914
2023-05-21T06:32:26.839Z,64.28938683804388
2023-05-21T06:35:22.280Z,64.19521128513563
2023-05-21T06:38:17.823Z,63.149764741488305
2023-05-21T06:41:13.397Z,63.613145192716686
2023-05-21T06:44:09.956Z,63.379919864875255
2023-05-21T06:47:06.524Z,61.82236628629637
2023-05-21T06:50:02.037Z,62.38927050492967
2023-05-21T06:52:58.630Z,62.01374975802219
2023-05-21T06:55:54.162Z,61.38536724473427
2023-05-21T06:58:49.759Z,61.09932664579008
2023-05-21T07:01:45.402Z,61.93530420396519
2023-05-21T07:04:40.925Z,61.85160880822438
2023-05-21T07:07:36.440Z,62.564891900066726
2023-05-21T07:10:31.949Z,61.34655804362407
2023-05-21T07:13:27.582Z,61.0986600873594
2023-05-21T07:16:23.104Z,60.641876802131236
2023-05-21T07:19:18.697Z,59.56215828897119
2023-05-21T07:22:14.206Z,59.08694081883547
2023-05-21T07:25:11.815Z,61.14079375912535
2023-05-21T07:28:07.369Z,59.1470644158327
2023-05-21T07:31:02.904Z,58.945436976044746
2023-05-21T07:33:59.463Z,59.57678628971007
2023-05-21T07:36:55.007Z,59.01739531283593
2023-05-21T07:39:50.583Z,57.66958081120858
2023-05-21T07:42:46.144Z,58.244794567209375
2023-05-21T07:45:41.720Z,58.000317905764035
2023-05-21T07:48:37.279Z,56.60012988748381
2023-05-21T07:51:32.906Z,56.237394505287
2023-05-21T07:54:28.403Z,56.555924623271856
2023-05-21T07:57:23.977Z,55.70029233600377
2023-05-21T08:00:19.541Z,57.75625703884691
2023-05-21T08:03:16.339Z,56.607896773195996
2023-05-21T08:06:11.626Z,55.26624547177296
2023-05-21T08:09:08.283Z,55.614373939711214
2023-05-21T08:12:04.793Z,56.80174379100843
2023-05-21T08:15:00.377Z,56.02676074334549
2023-05-21T08:17:55.952Z,56.587057917814185
2023-05-21T08:20:52.507Z,55.47873138586009
2023-05-21T08:23:47.991Z,53.3911922406778
2023-05-21T08:26:44.589Z,53.35915907254564
2023-05-21T08:29:41.154Z,52.37788973857335
2023-05-21T08:32:37.725Z,51.92595943040683
2023-05-21T08:35:33.248Z,51.70349795755247
2023-05-21T08:38:30.454Z,50.31238259133595
2023-05-21T08:41:27.383Z,50.570219318364124
2023-05-21T08:44:27.895Z,51.223449083884695
2023-05-21T08:47:26.524Z,49.68590093597953
2023-05-21T08:50:25.989Z,47.18592360594206
2023-05-21T08:53:28.151Z,49.345248973841265
2023-05-21T08:56:26.156Z,49.685897985481944
2023-05-21T08:59:22.667Z,42.861782939180515
2023-05-21T09:02:19.376Z,44.07140578543075
2023-05-21T09:05:21.748Z,46.55605809742679
2023-05-21T09:08:21.337Z,46.63154037586616
2023-05-21T09:11:20.868Z,46.26603876248362
2023-05-21T09:14:18.429Z,46.031386259112985
2023-05-21T09:17:15.014Z,46.079393084443645
2023-05-21T09:20:12.673Z,44.81635665231563
2023-05-21T09:23:16.138Z,44.22443360117871
2023-05-21T09:26:13.660Z,43.089613238818735
2023-05-21T09:29:09.215Z,42.605108380232366
2023-05-21T09:32:06.780Z,42.98135956106272
2023-05-21T09:35:09.372Z,43.00781155489346
2023-05-21T09:38:08.884Z,41.106781068547946
2023-05-21T09:41:06.439Z,39.41421367264503
2023-05-21T09:44:03.984Z,40.68219884686544
2023-05-21T09:46:59.691Z,42.99668021249332
2023-05-21T09:49:58.114Z,39.75887497290301
2023-05-21T09:52:55.651Z,38.05143066805204
2023-05-21T09:55:57.202Z,39.05607598827914
2023-05-21T09:58:54.901Z,39.76326120111266
2023-05-21T10:01:52.345Z,39.918123099574615
2023-05-21T10:04:50.034Z,41.612588754075055
2023-05-21T10:07:49.413Z,43.35662041382955
2023-05-21T10:10:46.978Z,43.31168959959771
2023-05-21T10:13:45.519Z,41.17124840732769
2023-05-21T10:16:42.206Z,41.5108161048125
2023-05-21T10:19:42.628Z,41.55623948935704
2023-05-21T10:22:40.190Z,40.22789983114027
2023-05-21T10:25:37.773Z,39.382052102312876
2023-05-21T10:28:34.308Z,37.900240796064715
2023-05-21T10:31:32.879Z,40.239545812860804
2023-05-21T10:34:31.409Z,38.71711197153567
2023-05-21T10:37:28.959Z,36.68446527347658
2023-05-21T10:40:24.569Z,36.45707372799964
2023-05-21T10:46:48.591Z,37.59121629402238
2023-05-21T10:50:04.104Z,33.810310948999756
2023-05-21T10:53:13.659Z,34.78967792208293
2023-05-21T10:59:36.692Z,34.57561067573667
2023-05-21T11:02:33.332Z,31.063611036090556
2023-05-21T11:05:40.774Z,32.061819401026256
2023-05-21T11:08:37.304Z,31.21927345920163
2023-05-21T11:11:44.889Z,29.406298580989876
2023-05-21T11:14:50.392Z,30.159982276918043
2023-05-21T11:17:49.972Z,30.77784941977541
2023-05-21T11:20:50.478Z,29.31928785873355
2023-05-21T11:23:49.066Z,29.569311157871393
2023-05-21T11:27:01.561Z,30.28432776187724
2023-05-21T11:30:04.092Z,30.815508957509213
2023-05-21T11:33:11.652Z,28.935180461925857
2023-05-21T11:36:12.194Z,27.49452798824188
2023-05-21T11:39:09.732Z,29.578988188289483
2023-05-21T11:42:11.266Z,28.947984160637112
2023-05-21T11:45:11.826Z,28.30711333858055
2023-05-21T11:48:12.402Z,28.465478513536773
2023-05-21T11:51:08.952Z,26.759933455194883
2023-05-21T11:54:04.528Z,26.157063119097813
2023-05-21T11:57:07.049Z,27.022750138957807
2023-05-21T12:00:13.584Z,27.178212195104468
2023-05-21T12:03:14.406Z,26.397250032256842
2023-05-21T12:06:16.740Z,26.300299957354266
2023-05-21T12:09:14.229Z,25.749641905771952
2023-05-21T12:12:12.775Z,25.78570914726058
2023-05-21T12:15:10.418Z,25.90565947868767
2023-05-21T12:18:06.016Z,26.746492875332283
2023-05-21T12:21:01.462Z,26.31899880201114
2023-05-21T12:23:59.033Z,25.435955528481976
2023-05-21T12:26:58.611Z,27.003582162883255
2023-05-21T12:29:56.157Z,24.86384907956834
2023-05-21T12:32:52.814Z,26.657374316348605
2023-05-21T12:35:53.299Z,27.032939797434434
2023-05-21T12:38:49.822Z,28.721516347680385
2023-05-21T12:41:45.389Z,25.63881234240796
2023-05-21T12:44:43.878Z,26.97763184237505
2023-05-21T12:47:39.515Z,26.304987047484254
2023-05-21T12:50:39.249Z,24.618460411884932
2023-05-21T12:53:37.600Z,25.335046064277194
2023-05-21T12:56:45.109Z,25.276055464704076
2023-05-21T12:59:46.738Z,22.652460823085868
2023-05-21T13:02:47.272Z,24.30520144054121
2023-05-21T13:05:47.744Z,23.741549037742388
2023-05-21T13:08:45.324Z,22.87550303636742
2023-05-21T13:11:40.869Z,22.845105414587163
2023-05-21T13:14:36.476Z,21.650478602860293
2023-05-21T13:17:34.031Z,22.38879334029393
2023-05-21T13:20:39.684Z,20.993077108208634
2023-05-21T13:23:36.096Z,20.309271344021443
2023-05-21T13:26:31.633Z,23.369708095319535
2023-05-21T13:29:27.217Z,21.856847291593603
2023-05-21T13:32:22.790Z,19.858554698356468
2023-05-21T13:35:19.297Z,20.154441395121623
2023-05-21T13:38:14.908Z,21.769311847939957
2023-05-21T13:41:10.422Z,20.527557339131985
2023-05-21T13:44:06.003Z,20.633778469844035
2023-05-21T13:47:01.645Z,21.43417040856169
2023-05-21T13:49:57.127Z,20.801970920269458
2023-05-21T13:52:52.694Z,19.539068250796454
2023-05-21T13:55:49.288Z,18.35135563712838
2023-05-21T13:58:45.858Z,18.585308359563047
2023-05-21T14:01:44.417Z,17.177684895534572
2023-05-21T14:04:39.937Z,16.262598895679417
2023-05-21T14:07:36.500Z,18.4248942486668
2023-05-21T14:10:34.183Z,19.15561084075935
2023-05-21T14:13:30.634Z,20.525129792628945
2023-05-21T14:16:27.244Z,21.36316406508344
2023-05-21T14:19:22.778Z,20.389995898894487
2023-05-21T14:22:18.316Z,21.84156550967144
2023-05-21T14:25:13.854Z,22.26112995914095
2023-05-21T14:28:09.440Z,23.976903681555076
2023-05-21T14:31:04.983Z,25.63489145863488
2023-05-21T14:34:04.530Z,28.442466465915615
2023-05-21T14:37:00.140Z,30.99972329217122
2023-05-21T14:39:55.680Z,34.216221527412785
2023-05-21T14:42:53.193Z,41.15213531309463
2023-05-21T14:45:48.835Z,43.3106678338908
2023-05-21T14:48:46.325Z,45.72473786086438
2023-05-21T14:51:42.874Z,48.20716761224328
2023-05-21T14:54:38.457Z,50.59349120971578
2023-05-21T14:57:35.039Z,50.32949809307745
2023-05-21T15:00:31.596Z,55.77253355930302
2023-05-21T15:03:27.342Z,59.0882549731726
2023-05-21T15:06:23.652Z,64.60251569941543
2023-05-21T15:09:19.239Z,58.59780277484037
2023-05-21T15:12:15.822Z,57.968050099095684
2023-05-21T15:15:13.384Z,59.59184608944105
2023-05-21T15:18:08.990Z,61.49514468882466
2023-05-21T15:21:05.484Z,62.61169565204947
2023-05-21T15:24:01.042Z,63.63080718101838
2023-05-21T15:26:58.618Z,63.218361381235
2023-05-21T15:29:56.212Z,63.19636661708018
2023-05-21T15:32:52.680Z,62.85586338937319
2023-05-21T15:35:48.382Z,62.69779801382009
2023-05-21T15:38:43.825Z,61.82195847475501
2023-05-21T15:41:40.426Z,62.69716405341467
2023-05-21T15:44:35.948Z,63.39459007568162
2023-05-21T15:47:31.597Z,63.52557388046849
2023-05-21T15:50:28.123Z,64.72993584368757
2023-05-21T15:53:23.680Z,65.19553732915914
2023-05-21T15:56:19.205Z,64.32800152085709
2023-05-21T15:59:15.721Z,59.73755598824339
2023-05-21T16:02:11.318Z,54.55440972099798
2023-05-21T16:05:08.893Z,50.57240348358278
2023-05-21T16:08:05.456Z,44.632048941580344
2023-05-21T16:11:00.968Z,46.26274927798533
2023-05-21T16:13:56.581Z,44.01728554660252
2023-05-21T16:16:52.208Z,39.86305814647357
2023-05-21T16:19:47.958Z,39.71852756465886
2023-05-21T16:22:43.272Z,40.40560938404126
2023-05-21T16:25:39.945Z,40.03087387014678
2023-05-21T16:28:37.360Z,39.404738554152246
2023-05-21T16:31:35.009Z,40.6184820391958
2023-05-21T16:34:30.476Z,37.16929138319815
2023-05-21T16:37:27.066Z,38.35400934461935
2023-05-21T16:40:23.593Z,36.90014078152411
2023-05-21T16:43:20.173Z,37.13542259036521
2023-05-21T16:46:17.737Z,38.08847763195503
2023-05-21T16:49:14.272Z,39.24882903396756
2023-05-21T16:52:09.864Z,42.30063125628159
2023-05-21T16:55:06.434Z,44.84264015941897
2023-05-21T16:58:02.917Z,47.415399104721395
2023-05-21T17:00:58.494Z,46.06478208139064
2023-05-21T17:03:55.264Z,48.27529551400935
2023-05-21T17:06:50.666Z,47.540108347600686
2023-05-21T17:09:46.265Z,47.458678120833376
2023-05-21T17:12:41.774Z,48.62479982240665
2023-05-21T17:15:38.760Z,51.00014288554628
2023-05-21T17:18:33.893Z,49.202487211916576
2023-05-21T17:21:31.442Z,49.68717751705465
2023-05-21T17:24:27.006Z,50.50179037366124
2023-05-21T17:27:22.572Z,53.74603028754591
2023-05-21T17:30:18.092Z,54.556527184285095
2023-05-21T17:33:14.748Z,54.9179686467126
2023-05-21T17:36:10.247Z,57.113871525382
2023-05-21T17:39:06.816Z,59.12486367551357
2023-05-21T17:42:02.373Z,58.91786424653215
2023-05-21T17:44:57.933Z,58.890905769076895
2023-05-21T17:47:53.538Z,59.60320185443506
2023-05-21T17:50:49.086Z,63.5959814738757
2023-05-21T17:53:44.629Z,65.03470163158714
2023-05-21T17:56:43.230Z,68.55551196422867
2023-05-21T17:59:44.724Z,66.49418180006548
2023-05-21T18:02:41.331Z,72.24498748954727
2023-05-21T18:05:37.129Z,75.86406689878282
2023-05-21T18:08:32.420Z,78.1393338829416
2023-05-21T18:11:29.976Z,75.59778500686505
2023-05-21T18:14:26.512Z,71.75694448373557
2023-05-21T18:17:22.187Z,69.33476729171585
2023-05-21T18:20:18.649Z,63.76970992857223
2023-05-21T18:23:16.198Z,62.304942289028354
2023-05-21T18:26:11.762Z,64.20501465305091
2023-05-21T18:29:10.288Z,65.64234382669484
2023-05-21T18:32:07.964Z,68.0929489012959
2023-05-21T18:35:03.474Z,69.11573996073767
2023-05-21T18:37:58.945Z,72.49793174378854
2023-05-21T18:40:56.537Z,72.09542840661155
2023-05-21T18:43:52.104Z,72.62822074471812
2023-05-21T18:46:47.723Z,72.41020198118856
2023-05-21T18:49:43.244Z,73.26193172683809
2023-05-21T18:52:39.767Z,73.19539041837183
2023-05-21T18:55:35.379Z,72.56804895343572
2023-05-21T18:58:32.898Z,73.3712247182959
2023-05-21T19:01:28.553Z,72.70159978081892
2023-05-21T19:04:24.064Z,73.51140418720341
2023-05-21T19:10:11.169Z,73.76737456329536
2023-05-21T19:13:07.717Z,73.48468508759731
2023-05-21T19:16:03.431Z,73.6347941695113
2023-05-21T19:19:02.868Z,73.16888588247367
2023-05-21T19:22:12.707Z,73.25043145492498
2023-05-21T19:25:08.970Z,73.57134139183724
2023-05-21T19:28:10.228Z,74.70186959577526
2023-05-21T19:31:07.035Z,74.57830407314516
2023-05-21T19:34:04.619Z,75.50545946680218
2023-05-21T19:37:01.153Z,74.63609854300076
2023-05-21T19:39:56.709Z,75.87679680803933
2023-05-21T19:42:53.266Z,75.64526028906394
2023-05-21T19:45:48.852Z,75.93427268573001
2023-05-21T19:48:50.369Z,75.40464486297306
2023-05-21T19:51:46.504Z,75.29691492251392
2023-05-21T19:54:44.505Z,73.6786017211142
2023-05-21T19:57:40.083Z,73.61750656105403
2023-05-21T20:00:37.635Z,74.13692950297218
2023-05-21T20:03:35.219Z,74.6322394379329
2023-05-21T20:06:30.741Z,75.115587287387
2023-05-21T20:09:26.264Z,74.89330666126517
2023-05-21T20:12:21.864Z,74.02405471407565
2023-05-21T20:15:19.422Z,73.22892839994584
2023-05-21T20:18:16.966Z,74.23192181008052
2023-05-21T20:21:13.518Z,75.23392305800235
2023-05-21T20:24:11.095Z,74.75600542368993
2023-05-21T20:27:07.695Z,73.85442393048329
2023-05-21T20:30:04.172Z,74.44129150565212
2023-05-21T20:33:00.792Z,73.75913981788867
2023-05-21T20:35:59.314Z,73.78804596724915
2023-05-21T20:38:56.846Z,73.19897350805282
2023-05-21T20:41:54.437Z,74.04841518490456
2023-05-21T20:44:53.020Z,75.06285688490567
2023-05-21T20:47:49.573Z,75.48081484085243
2023-05-21T20:50:48.060Z,78.15493073974686
2023-05-21T20:53:46.682Z,76.97774012673236
2023-05-21T20:56:44.225Z,76.17188487968562
2023-05-21T20:59:39.770Z,76.00318635371289
2023-05-21T21:02:38.604Z,76.32471228284962
2023-05-21T21:05:34.899Z,77.7768949678847
2023-05-21T21:08:34.428Z,79.46740020474559
2023-05-21T21:11:31.003Z,79.29892343988138
2023-05-21T21:14:28.349Z,78.7754416799573
2023-05-21T21:17:24.106Z,79.15290257839763
2023-05-21T21:20:19.647Z,78.92268510106796
2023-05-21T21:23:16.256Z,78.81253745821115
2023-05-21T21:26:11.780Z,77.97015540509967
2023-05-21T21:29:07.343Z,78.20511836640995
2023-05-21T21:32:02.894Z,77.3992178493829
2023-05-21T21:34:58.474Z,78.26973068618778
2023-05-21T21:37:55.005Z,78.8824681231441
2023-05-21T21:40:51.602Z,79.66517130835479
2023-05-21T21:43:47.139Z,79.96758359446821
2023-05-21T21:46:42.671Z,80.13699798959092
2023-05-21T21:49:38.256Z,78.90332461656293
2023-05-21T21:52:33.835Z,79.3680414894147
2023-05-21T21:55:29.421Z,80.3190976510805
2023-05-21T21:58:26.020Z,79.387319481262
2023-05-21T22:01:21.532Z,78.66752311629321
2023-05-21T22:04:17.255Z,79.28334642981311
2023-05-21T22:07:17.637Z,80.77817388824185
2023-05-21T22:10:14.201Z,79.61895970706594
2023-05-21T22:13:10.753Z,81.88441602041276
2023-05-21T22:16:07.316Z,81.00805164160636
2023-05-21T22:19:03.873Z,80.45177102507259
2023-05-21T22:22:03.460Z,82.34425553734886
2023-05-21T22:24:59.950Z,82.2138275814684
2023-05-21T22:27:55.531Z,83.18041273173662
2023-05-21T22:30:53.112Z,82.26120306939991
2023-05-21T22:33:48.696Z,83.98550359302828
2023-05-21T22:36:49.198Z,83.5482922498242
2023-05-21T22:39:44.783Z,83.36254731456879
2023-05-21T22:42:41.351Z,81.3107775084854
2023-05-21T22:45:37.892Z,82.50229024262624
2023-05-21T22:51:45.980Z,84.40111824768603
2023-05-21T22:54:41.552Z,84.27658586114346
2023-05-21T22:57:38.098Z,85.76239122676034
2023-05-21T23:00:33.644Z,86.76092051975625
2023-05-21T23:03:31.204Z,86.38932449173184
2023-05-21T23:06:26.767Z,84.89659964448319
2023-05-21T23:09:22.315Z,85.7050842095532
2023-05-21T23:12:17.864Z,85.48564370846432
2023-05-21T23:15:13.508Z,84.96587519373632
2023-05-21T23:18:09.095Z,85.05567475038026
2023-05-21T23:21:06.586Z,85.35010285983356
2023-05-21T23:24:03.140Z,84.37818469202226
2023-05-21T23:27:02.727Z,85.99957101485765
2023-05-21T23:29:58.210Z,85.832637223218
2023-05-21T23:32:55.792Z,84.06689017563221
2023-05-21T23:35:51.748Z,84.78767839692314
2023-05-21T23:38:46.921Z,85.63512034393693
2023-05-21T23:41:42.484Z,86.25449843274941
2023-05-21T23:44:38.056Z,85.36652033205509
2023-05-21T23:47:33.608Z,85.58069745850489
2023-05-21T23:50:29.134Z,84.65153925401714
2023-05-21T23:53:25.808Z,85.08752497701633
2023-05-21T23:56:21.267Z,85.79150921477553
2023-05-21T23:59:18.484Z,86.32103908480526
